Home   Weather   USA   Williston   Past weeks
Flag for USA

Past Weather in Williston, North Dakota, USA — Yesterday and Last 2 Weeks

Currently: 54 °F. Passing clouds. (Weather station: Tioga Municipal Airport, USA). See more current weather

Past Weather in Williston — Graph

°F

Williston Temperature Yesterday

Maximum temperature yesterday: 73 °F (at 3:15 pm)
Minimum temperature yesterday: 57 °F (at 11:35 pm)
Average temperature yesterday: 64 °F

High & Low Weather Summary for the Past Weeks

 TemperatureHumidityPressure
High79 °F (Jun 12, 3:35 pm)100% (Jun 9, 4:55 am)30.29 "Hg (Jun 9, 4:55 am)
Low39 °F (Jun 9, 5:55 am)24% (Jun 8, 1:35 pm)29.40 "Hg (Jun 15, 11:55 pm)
Average59 °F79%29.94 "Hg
* Reported Jun 8 1:15 am — Jun 23 1:35 am, Williston. Weather by CustomWeather, © 2024

Note: Actual official high and low records may vary slightly from our data, if they occured in-between our weather recording intervals... More about our weather records

Williston Weather History for the Previous 24 Hours

Scroll right to see more
 ConditionsComfort  
Time TempWeatherWind HumidityBarometerVisibility
1:35 am
Sun, Jun 23
55 °FClear.3 mph100%29.94 "Hg10 mi
1:15 am55 °FClear.3 mph100%29.94 "Hg10 mi
12:55 am55 °FClear.No wind100%29.94 "Hg10 mi
12:35 am57 °FClear.6 mph100%29.94 "Hg10 mi
12:15 am57 °FClear.No wind100%29.94 "Hg10 mi
11:55 pm
Sat, Jun 22
59 °FClear.5 mph100%29.94 "Hg10 mi
11:35 pm57 °FClear.6 mph100%29.94 "Hg10 mi
11:15 pm59 °FClear.No wind100%29.94 "Hg10 mi
10:55 pm59 °FClear.3 mph100%29.94 "Hg10 mi
10:35 pm59 °FClear.5 mph100%29.93 "Hg10 mi
10:15 pm63 °FClear.No wind88%29.93 "Hg8 mi
9:35 pm64 °FFog.No wind88%29.92 "Hg6 mi
9:15 pm68 °FSunny.6 mph73%29.92 "Hg10 mi
8:55 pm70 °FSunny.7 mph69%29.92 "Hg10 mi
8:15 pm72 °FBroken clouds.7 mph69%29.91 "Hg10 mi
7:35 pm70 °FScattered clouds.8 mph73%29.91 "Hg10 mi
7:15 pm73 °FThundershowers. Sunny.13 mph61%29.92 "Hg10 mi
6:55 pm73 °FSunny.10 mph57%29.92 "Hg10 mi
6:35 pm73 °FPassing clouds.12 mph53%29.92 "Hg10 mi
6:15 pm73 °FSunny.9 mph57%29.92 "Hg10 mi
5:55 pm73 °FSunny.10 mph57%29.92 "Hg10 mi
5:35 pm73 °FSunny.12 mph57%29.92 "Hg10 mi
5:15 pm73 °FSunny.13 mph53%29.93 "Hg10 mi
4:55 pm73 °FPassing clouds.10 mph57%29.93 "Hg10 mi
4:35 pm73 °FScattered clouds.14 mph57%29.94 "Hg10 mi
4:15 pm72 °FScattered clouds.15 mph69%29.94 "Hg10 mi
3:35 pm72 °FSunny.10 mph69%29.95 "Hg10 mi
3:15 pm73 °FPassing clouds.8 mph74%29.95 "Hg10 mi
2:35 pm72 °FScattered clouds.7 mph78%29.96 "Hg10 mi
2:15 pm72 °FScattered clouds.8 mph78%29.96 "Hg10 mi
1:55 pm70 °FScattered clouds.6 mph88%29.96 "Hg10 mi
1:35 pm68 °FPartly sunny.8 mph94%29.97 "Hg10 mi
1:15 pm68 °FPartly sunny.7 mph94%29.97 "Hg10 mi
12:55 pm68 °FBroken clouds.7 mph94%29.97 "Hg10 mi
12:35 pm68 °FPartly sunny.9 mph100%29.97 "Hg10 mi
12:15 pm66 °FCloudy.8 mph100%29.97 "Hg10 mi
11:55 am66 °FMostly cloudy.7 mph100%29.97 "Hg10 mi
11:35 am64 °FOvercast.6 mph100%29.98 "Hg10 mi
11:15 am66 °FOvercast.8 mph100%29.98 "Hg10 mi
10:55 am64 °FOvercast.6 mph100%29.98 "Hg10 mi
10:35 am63 °FOvercast.6 mph100%29.98 "Hg9 mi
10:15 am63 °FLow clouds.7 mph100%29.98 "Hg8 mi
9:35 am61 °FLow clouds.6 mph100%29.97 "Hg9 mi
9:15 am61 °FLow clouds.No wind100%29.97 "Hg10 mi
8:55 am61 °FLow clouds.No wind100%29.97 "Hg9 mi
8:35 am61 °FLow clouds.No wind100%29.97 "Hg9 mi
7:55 am59 °FLow clouds.3 mph100%29.98 "Hg7 mi
7:15 am59 °FLow clouds.No wind100%29.97 "Hg9 mi
6:55 am59 °FLow clouds.No wind100%29.98 "Hg10 mi
6:35 am59 °FLow clouds.No wind100%29.98 "Hg10 mi
6:15 am59 °FLow clouds.No wind100%29.98 "Hg10 mi
5:55 am59 °FMostly cloudy.No wind100%29.99 "Hg10 mi
5:35 am59 °FOvercast.No wind100%29.98 "Hg10 mi
5:15 am59 °FMostly cloudy.5 mph100%29.98 "Hg10 mi
4:55 am59 °FMostly cloudy.No wind100%29.99 "Hg10 mi
4:35 am59 °FLow clouds.No wind100%30.00 "Hg10 mi
4:15 am59 °FLow clouds.No wind100%30.00 "Hg10 mi
3:35 am59 °FLow clouds.6 mph100%30.00 "Hg10 mi
3:15 am59 °FLow clouds.10 mph100%30.00 "Hg10 mi
Weather by CustomWeather, © 2024

See weather overview